ACT        NSW        VIC        QLD        SA        WA        TAS        NT        INFO        CALC            by VK5ZD

  Atmospheric Gas Attenuation - ITU Rec 676-11   --------------- db/100km ---------------
Station Date Time Temp RH % AH g/m3 Dew Point Wind Direction Speed kph Gust kph Barometer mB Rainfall Since 9am 24GHz 47GHz 76GHz 122GHz 134GHz 241GHz
Albany Airport 16 23:40 11.8 87 9.16 9.7 15 17 1007.4 1.6 20.9 27.2 42.9 112.7 108.1 372.4
Argyle 17 01:20 16.5 33 4.63 0.2 0 0 1015.1 0 11.1 19.4 24.3 63.1 48.2 162.8
Badgingarra 16 23:30 12.9 100 11.27 12.9 13 17 1013.1 0 25.4 30.7 51.7 136.1 137.0 473.3
Barimunya 16 23:40 16.1 19 2.6 -7.5 13 13 1016.9 0 6.8 17.0 18.1 46.3 27.2 88.6
Barrow Island 16 23:40 18.4 78 12.27 14.5 13 13 1013.5 0 27.2 30.6 52.4 138.0 141.3 489.1
Bedout Island 16 23:40 23.2 53 11.02 13.1 15 15 1013.7 0 24.2 27.0 44.4 116.7 116.7 403.8
Bickley 16 23:30 11.8 99 10.42 11.6 9 20 1013.1 9 23.6 29.6 48.6 127.9 126.5 436.5
Bridgetown 16 23:40 10.6 99 9.66 10.4 4 4 1013.1 6.2 22.0 28.7 46.0 120.9 117.5 404.8
Broome 16 23:40 13.9 82 9.83 10.9 0 0 1013.5 0 22.2 27.9 44.8 117.8 114.9 396.2
Bunbury 16 23:40 13.7 81 9.59 10.6 13 17 1013.1 12.4 21.7 27.6 43.9 115.4 111.8 385.5
Busselton Airport 16 23:40 11.2 99 10.04 11 0 0 1008.6 5.8 22.8 29.0 47.1 123.9 121.6 419.2
Cape Leeuwin 16 23:40 14.4 79 9.77 10.8 33 46 1008 6.4 22.1 27.4 44.0 115.8 112.8 389.1
Cape Naturaliste 16 23:40 12.1 77 8.26 8.2 26 30 1008.3 1.8 18.9 25.6 39.1 102.5 95.6 328.6
Carnarvon 16 23:40 19.4 100 16.68 19.4 7 11 1012.9 1.4 36.6 38.2 71.6 189.3 204.7 710.1
Christmas Creek 16 23:40 17.3 16 2.36 -8.3 13 15 1016.8 0 6.3 16.4 17.1 43.7 24.5 79.0
Christmas Island 16 23:40 24.5 85 19.02 21.8 17 20 1012.4 0 41.1 40.3 77.7 205.7 226.5 786.5
Cocos Island 16 23:40 25.9 88 21.3 23.8 24 30 1011.7 0.4 45.8 44.0 87.2 230.9 257.9 896.0
Collie East 16 23:40 11.5 93 9.61 10.4 9 13 1013.1 9.6 21.9 28.3 45.2 118.9 115.4 397.6
Coondewanna 16 23:40 9.6 32 2.93 -6.3 0 0 1017.3 0 7.7 18.6 20.6 53.0 33.1 108.5
Cunderdin Airport 16 23:30 12.8 100 11.2 12.8 11 15 1010.2 0.8 25.2 30.5 51.3 135.0 135.8 469.3
Curtin 16 23:40 11.8 44 4.63 0 7 7 1013.3 0 11.2 20.4 25.7 66.7 51.0 172.1
Dalwallinu 16 23:40 14.6 91 11.39 13.1 17 24 1010.5 4.8 25.5 30.2 50.9 134.2 135.4 468.0
Degrussa Aerodrome 16 23:40 18.4 21 3.3 -4.4 11 13 1015.8 0 8.2 17.4 19.6 50.6 33.4 110.6
Derby 16 23:40 15.3 42 5.48 2.5 7 9 1013.3 0 12.9 20.8 27.5 71.6 58.5 198.6
Dwellingup 16 23:40 11.5 97 10.02 11 15 17 1009.2 21 22.8 28.8 46.8 123.2 120.9 416.8
Esperance 16 23:40 14.6 100 12.51 14.6 20 26 1010.6 9 28.0 32.3 55.9 147.5 151.8 525.3
Esperance Airport 16 23:40 13.9 100 11.99 13.9 26 30 1010.5 7.4 26.9 31.6 54.1 142.5 145.5 503.0
Eucla 16 23:40 15.7 27 3.61 -3.2 19 20 1016.3 0 9.0 18.3 21.3 54.9 37.8 125.7
Fitzroy Crossing 16 23:40 12.3 35 3.8 -2.7 6 7 1013.7 0 9.5 19.1 22.7 58.7 41.4 138.1
Forrest 16 23:40 10.4 37 3.57 -3.6 17 17 1016.8 0 9.0 19.3 22.5 58.2 39.9 132.5
Fortescue Dave Forrest 16 23:40 16.4 17 2.37 -8.3 9 11 1016.3 0 6.4 16.6 17.3 44.2 24.8 80.2
Garden Island 16 23:40 15.7 82 10.97 12.6 26 30 1009.6 0 24.6 29.1 48.4 127.4 127.5 440.4
Geraldton Airport 16 23:40 16.7 94 13.36 15.7 7 9 1010.8 22.2 29.6 33.0 58.2 153.7 160.1 554.5
Giles* 17 01:20 10.1 21 1.99 -11 17 17 1019.3 0 5.7 17.3 17.5 44.7 22.8 72.4
Gingin Airport 16 23:40 13.6 96 11.3 13 11 13 1010.5 0 25.4 30.4 51.2 134.9 135.9 469.6
Gooseberry Hill 16 23:40 12.7 100 11.13 12.7 7 9 1013.1 0 25.1 30.6 51.2 134.7 135.3 467.4
Halls Creek 17 01:20 11.4 36 3.7 -3.1 6 6 1015.8 0 9.3 19.2 22.7 58.6 40.8 135.9
Hopetoun North 16 23:30 14.4 100 12.36 14.4 7 13 1008.7 3.4 27.6 32.0 55.3 145.8 149.8 518.1
Jacup 16 23:40 11.5 96 9.92 10.9 19 20 1008.8 9 22.6 28.7 46.4 122.0 119.4 411.6
Jandakot 16 23:40 13.8 99 11.8 13.6 0 0 1009.6 3.6 26.5 31.2 53.2 140.3 142.8 493.5
Kalgoorlie-Boulder 16 23:40 17.2 69 10.1 11.5 9 9 1012.8 0 22.6 27.3 44.0 115.8 113.6 392.1
Kalumburu 17 01:20 13 86 9.75 10.7 0 0 1013.2 0 22.1 28.0 45.0 118.2 115.1 396.8
Karijini North 16 23:40 14.5 22 2.74 -6.9 0 0 1016.5 0 7.2 17.4 18.8 48.3 29.2 95.3
Karnet 16 15:00 13.7 97 11.49 13.3 9 1013.1 18 25.8 30.8 52.1 137.3 138.8 479.6
Karratha 16 23:40 16.3 70 9.71 10.8 13 13 1014.1 0 21.8 27.0 43.0 113.0 109.8 378.8
Katanning Rs 16 23:40 10.9 86 8.56 8.6 6 7 1013.1 5 19.6 26.7 41.1 107.9 101.6 349.3
Lake Grace 16 23:40 12.6 99 10.95 12.4 9 11 1009.3 6.4 24.7 30.1 50.2 132.3 132.5 457.4
Lancelin (Defence) 16 23:40 14.8 92 11.65 13.5 20 24 1013.1 8.4 26.1 30.7 52.1 137.2 139.1 480.8
Laverton 16 23:40 16.4 22 3.07 -5.3 19 20 1015.2 0 7.8 17.4 19.4 49.9 31.8 104.9
Learmonth 16 23:40 19.5 78 13.09 15.6 0 0 1013.8 0 28.8 31.6 55.1 145.4 150.8 522.4
Leinster 16 23:40 17.1 23 3.35 -4.2 22 24 1013.4 0 8.4 17.6 20.0 51.6 34.3 113.9
Leonora Airport 16 23:40 20 19 3.28 -4.3 30 35 1012.9 0 8.2 17.0 19.1 49.3 32.5 107.6
Lombadina 16 23:40 15.8 69 9.29 10.1 4 4 1013 0 21.0 26.4 41.5 109.1 104.9 361.4
Mandurah 16 23:40 14.4 76 9.39 10.2 11 13 1013.1 7 21.2 27.0 42.7 112.2 108.1 372.6
Manjimup 16 23:40 9.3 99 8.9 9.2 11 13 1008.4 1.8 20.5 27.6 43.2 113.5 108.1 372.0
Marble Bar 16 23:40 15.2 21 2.73 -7 2 4 1013.1 0 7.1 17.2 18.6 47.6 28.7 93.9
Mardie 16 23:40 18.9 59 9.56 10.7 9 9 1013.1 0 21.4 25.9 41.0 107.7 104.2 359.5
Meekatharra 16 23:40 19.5 56 9.4 10.5 17 22 1014.4 0 21.0 25.6 40.1 105.4 101.5 350.1
Millendon (Swan Valley) 16 23:40 13.8 96 11.44 13.1 9 11 1013.1 9.8 25.7 30.7 51.8 136.5 137.9 476.4
Morawa Airport 16 23:30 15.4 100 13.14 15.4 26 44 1010.9 5 29.3 33.1 58.2 153.6 159.6 552.6
Mount Keith 16 23:40 16.2 24 3.31 -4.4 15 19 1014.9 0 8.3 17.8 20.2 51.9 34.4 113.8
Munglinup West 16 23:40 13.2 94 10.79 12.2 17 19 1013.1 2 24.3 29.8 49.3 129.9 129.5 447.1
Newdegate 16 23:40 12.6 92 10.18 11.3 9 9 1013.1 5.4 23.0 28.9 47.0 123.8 121.8 420.0
Newman Airport 16 23:40 10.2 26 2.47 -8.4 0 0 1016.4 0 6.7 17.9 18.9 48.6 27.8 90.1
Norseman Airport 16 23:40 15.1 81 10.45 11.9 7 9 1011.8 0 23.5 28.5 46.6 122.7 121.4 419.3
North Island 16 23:40 17.4 86 12.74 15 41 54 1012.2 2 28.2 31.7 55.0 145.1 149.8 518.5
Onslow Airport 16 23:40 21.2 78 14.45 17.2 13 15 1014 0 31.6 33.4 59.8 157.9 166.7 578.2
Paraburdoo 16 23:40 18.7 21 3.36 -4 11 11 1014.9 0 8.4 17.4 19.7 50.8 33.8 112.3
Pearce 16 23:40 14.3 94 11.55 13.3 7 7 1010.5 7.2 25.9 30.6 51.8 136.6 138.3 477.9
Perth 16 23:40 14.3 94 11.55 13.3 6 7 1010.2 6.4 25.9 30.6 51.8 136.5 138.2 477.8
Perth Airport 16 23:40 13.8 95 11.32 13 0 0 1009.8 2.6 25.4 30.4 51.1 134.7 135.8 469.1
Port Hedland 16 23:40 14 76 9.17 9.8 9 9 1014.5 0 20.8 26.8 42.1 110.5 105.8 364.6
Red Rocks Point 16 23:40 14.7 29 3.65 -3.1 19 22 1014.7 0 9.1 18.5 21.6 55.8 38.6 128.6
Rocky Gully South 16 23:40 10.1 90 8.51 8.5 11 15 1013.1 3.4 19.6 26.8 41.3 108.5 102.0 350.5
Roebourne Airport 16 23:40 15.1 67 8.64 9 7 7 1014.6 0 19.6 25.6 39.4 103.3 97.4 335.1
Rottnest Island 16 23:40 14.2 97 11.84 13.7 26 32 1010.2 8.4 26.5 31.2 53.2 140.1 142.6 493.2
Salmon Gums Rs 16 23:40 13.4 90 10.46 11.8 13 19 1013.1 2.4 23.6 29.1 47.8 125.7 124.4 429.5
Shannon 16 23:40 8.9 100 8.76 8.9 9 11 1013.1 2.6 20.2 27.6 43.0 113.0 107.1 368.4
Shark Bay Airport 16 23:40 17.7 98 14.78 17.4 19 20 1013.1 21.4 32.6 35.3 64.1 169.3 179.6 622.4
Solomon Airport 16 23:40 18.7 20 3.2 -4.7 6 7 1016.6 0 8.0 17.2 19.3 49.6 32.3 106.8
Southern Cross Airport 16 23:40 13.9 91 10.91 12.5 11 11 1010.9 1.2 24.5 29.7 49.3 129.8 129.8 448.3
Swanbourne 16 23:40 15.4 81 10.64 12.1 17 20 1013.1 7.6 23.9 28.8 47.3 124.5 123.7 427.3
Telfer 16 23:40 11.9 27 2.86 -6.5 9 9 1015.8 0 7.5 18.0 19.8 50.9 31.4 102.8
Thevenard Island 16 23:40 23.7 71 15.19 18.1 28 33 1013.4 0.2 33.0 33.7 61.1 161.3 171.7 595.7
Troughton Island 17 01:20 24.6 70 15.75 18.8 24 26 1012.8 0 34.1 34.3 62.8 165.8 177.5 616.2
Truscott 17 01:20 20.7 53 9.54 10.8 9 11 1012.6 0 21.2 25.4 40.0 105.0 101.6 350.4
Varanus Island 16 23:30 23.9 60 12.98 15.7 24 30 1013.8 0 28.3 29.9 51.7 136.3 141.0 488.5
Walpole North 16 23:40 10.9 99 9.85 10.7 11 13 1007.4 3.6 22.4 28.7 46.3 122.0 119.2 410.9
Wandering 16 23:40 11.8 100 10.53 11.8 6 7 1013.1 5.8 23.8 29.8 49.1 129.2 128.1 442.1
Warburton 17 01:20 10.6 26 2.54 -8.1 13 15 1018.4 0 6.8 17.9 19.1 49.1 28.5 92.4
Wiluna Airport 16 23:40 18.7 20 3.2 -4.7 17 20 1014.8 0 8.0 17.2 19.2 49.5 32.2 106.6
Witchcliffe 16 23:40 10.6 86 8.4 8.4 0 0 1008.5 2.2 19.3 26.3 40.4 106.1 99.4 341.7
Wyndham Airport 17 01:20 15.8 33 4.44 -0.4 7 7 1012.9 0 10.7 19.2 23.8 61.8 46.5 156.5
Yampi Sound (Defence) 16 23:40 10.1 77 7.28 6.2 0 0 1013.1 0 16.9 24.8 36.3 95.0 85.3 292.2

Last Refresh: 17-Jul-2020 01:23:13

The information presented on this site is sourced from the Bureau of Meteorology.  Copyright in all material sourced from the Bureau of Meteorology resides with the Commonwealth of Australia.